Terminal Aerodrome Forecast
Issued by NWS

Home | Current Version | Previous Version | Graphics & Text | Print | Product List | Glossary On
Versions: 1 2 3 4 5 6 7 8 9 10 11 12 13 14 15 16 17 18 19
108
FTUS43 KMPX 160520
TAFRNH
TAF
KRNH 160520Z 1606/1706 11006KT 4SM -SN OVC020
      TEMPO 1606/1609 2SM -SN OVC012
     FM160900 10006KT P6SM VCSH OVC015
     FM161200 10007KT 6SM -SHSN OVC020
     FM161600 11007KT P6SM OVC020
     FM170000 10005KT P6SM OVC015=

USA.gov is the U.S. government's official web portal to all federal, state and local government web resources and services.